Time;durP1;ratioP1;P1;durP2;ratioP2;P2;SDS_P1;SDS_P2;PMS_P1;PMS_P2;Temp;Humidity;BMP_temperature;BMP_pressure;BME280_temperature;BME280_humidity;BME280_pressure;Samples;Min_cycle;Max_cycle;Signal;HPM_P1;HPM_P2
2023/01/02 00:01:11;;;;;;;;;;;27.10;95.10;;;;;;5058919;28;19972;-72
2023/01/02 00:03:38;;;;;;;;;;;27.10;95.30;;;;;;5056192;28;20077;-72
2023/01/02 00:06:05;;;;;;;;;;;27.30;95.10;;;;;;5059846;28;20380;-72
2023/01/02 00:08:32;;;;;;;;;;;27.30;94.50;;;;;;5057651;28;19909;-71
2023/01/02 00:10:59;;;;;;;;;;;27.40;94.50;;;;;;5057724;28;20317;-72
2023/01/02 00:13:25;;;;;;;;;;;27.40;94.30;;;;;;5057758;28;20302;-70
2023/01/02 00:15:52;;;;;;;;;;;27.50;94.80;;;;;;5057125;28;19956;-71
2023/01/02 00:18:19;;;;;;;;;;;27.60;94.20;;;;;;5057926;28;19908;-71
2023/01/02 00:20:45;;;;;;;;;;;27.50;94.20;;;;;;5056187;28;20003;-70
2023/01/02 00:23:12;;;;;;;;;;;27.50;94.50;;;;;;5058291;28;19913;-73
2023/01/02 00:25:39;;;;;;;;;;;27.50;94.50;;;;;;5057066;28;19909;-72
2023/01/02 00:28:05;;;;;;;;;;;27.50;94.60;;;;;;5058202;28;20303;-72
2023/01/02 00:30:32;;;;;;;;;;;27.60;94.30;;;;;;5056733;28;19935;-72
2023/01/02 00:32:58;;;;;;;;;;;27.60;94.40;;;;;;5058018;28;20252;-73
2023/01/02 00:35:25;;;;;;;;;;;27.60;94.00;;;;;;5058325;28;19927;-72
2023/01/02 00:37:52;;;;;;;;;;;27.60;94.30;;;;;;5056952;28;19985;-73
2023/01/02 00:40:22;;;;;;;;;;;27.60;94.30;;;;;;5057116;28;20074;-71
2023/01/02 00:42:49;;;;;;;;;;;27.60;94.20;;;;;;5056887;28;19909;-70
2023/01/02 00:45:15;;;;;;;;;;;27.70;94.10;;;;;;5053659;28;19920;-71
2023/01/02 00:47:42;;;;;;;;;;;27.80;94.20;;;;;;5045589;28;19909;-70
2023/01/02 00:50:08;;;;;;;;;;;27.80;93.80;;;;;;5043469;28;19912;-72
2023/01/02 00:52:35;;;;;;;;;;;28.00;93.90;;;;;;5044922;28;19930;-71
2023/01/02 00:55:02;;;;;;;;;;;27.90;93.50;;;;;;5038981;28;19920;-70
2023/01/02 00:57:28;;;;;;;;;;;28.10;93.10;;;;;;5041716;28;19920;-70
2023/01/02 00:59:55;;;;;;;;;;;28.20;93.00;;;;;;5039146;28;19916;-71
2023/01/02 01:02:22;;;;;;;;;;;28.30;92.60;;;;;;5036008;28;19940;-71
2023/01/02 01:04:49;;;;;;;;;;;28.30;92.80;;;;;;5037094;28;19920;-70
2023/01/02 01:07:15;;;;;;;;;;;28.40;92.50;;;;;;5036963;28;19913;-73
2023/01/02 01:09:42;;;;;;;;;;;28.60;92.10;;;;;;5053423;28;20097;-73
2023/01/02 01:12:09;;;;;;;;;;;28.50;92.10;;;;;;5055860;28;20011;-71
2023/01/02 01:14:35;;;;;;;;;;;28.60;92.10;;;;;;5057061;28;20015;-73
2023/01/02 01:17:02;;;;;;;;;;;28.70;92.30;;;;;;5058151;28;20314;-72
2023/01/02 01:19:32;;;;;;;;;;;28.80;91.60;;;;;;5055545;28;19909;-73
2023/01/02 01:21:59;;;;;;;;;;;28.80;90.20;;;;;;5056070;28;20357;-72
2023/01/02 01:24:26;;;;;;;;;;;28.80;91.00;;;;;;5055468;28;19913;-71
2023/01/02 01:26:52;;;;;;;;;;;28.60;90.40;;;;;;5056949;28;20699;-74
2023/01/02 01:29:19;;;;;;;;;;;28.70;90.50;;;;;;5055798;28;19915;-71
2023/01/02 01:31:46;;;;;;;;;;;28.80;90.70;;;;;;5056385;28;19912;-73
2023/01/02 01:34:13;;;;;;;;;;;28.80;88.20;;;;;;5050262;28;19920;-71
2023/01/02 01:36:39;;;;;;;;;;;28.80;87.90;;;;;;5046619;28;19928;-72
2023/01/02 01:39:06;;;;;;;;;;;28.90;89.10;;;;;;5057935;28;19917;-71
2023/01/02 01:41:33;;;;;;;;;;;28.90;88.90;;;;;;5056430;28;19908;-72
2023/01/02 01:44:00;;;;;;;;;;;29.10;89.90;;;;;;5056524;28;19916;-71
2023/01/02 01:46:43;;;;;;;;;;;29.10;85.90;;;;;;5055094;28;20288;-71
2023/01/02 01:49:09;;;;;;;;;;;29.30;85.30;;;;;;5058344;28;20328;-72
2023/01/02 01:51:38;;;;;;;;;;;29.10;85.90;;;;;;5056163;28;19913;-71
2023/01/02 01:54:08;;;;;;;;;;;29.10;86.70;;;;;;5057433;28;19908;-72
2023/01/02 01:56:36;;;;;;;;;;;29.10;86.70;;;;;;5055113;28;20422;-72
2023/01/02 01:59:03;;;;;;;;;;;29.30;85.80;;;;;;5056418;28;19909;-72
2023/01/02 02:01:30;;;;;;;;;;;29.30;83.80;;;;;;5055191;28;19908;-73
2023/01/02 02:03:57;;;;;;;;;;;29.50;84.10;;;;;;5056533;28;20011;-74
2023/01/02 02:06:24;;;;;;;;;;;29.50;86.60;;;;;;5054370;28;20412;-75
2023/01/02 02:08:53;;;;;;;;;;;29.60;85.10;;;;;;5055220;28;20045;-70
2023/01/02 02:11:20;;;;;;;;;;;29.70;85.50;;;;;;5054962;28;19935;-72
2023/01/02 02:13:47;;;;;;;;;;;29.70;85.80;;;;;;5055198;28;20321;-73
2023/01/02 02:16:17;;;;;;;;;;;29.60;85.70;;;;;;5056285;28;20058;-73
2023/01/02 02:19:12;;;;;;;;;;;29.20;85.10;;;;;;5056216;28;20292;-71
2023/01/02 02:21:45;;;;;;;;;;;29.10;86.80;;;;;;5056223;28;19908;-74
2023/01/02 02:24:27;;;;;;;;;;;29.30;87.00;;;;;;5054899;28;19915;-72
2023/01/02 02:26:59;;;;;;;;;;;29.60;84.50;;;;;;5053886;28;20246;-74
2023/01/02 02:29:44;;;;;;;;;;;29.80;84.00;;;;;;5056255;28;20354;-75
2023/01/02 02:32:20;;;;;;;;;;;29.70;85.40;;;;;;5057071;28;19908;-72
2023/01/02 02:35:16;;;;;;;;;;;29.80;85.10;;;;;;5055439;28;19932;-73
2023/01/02 02:38:04;;;;;;;;;;;30.00;84.40;;;;;;5055177;28;19921;-72
2023/01/02 02:40:31;;;;;;;;;;;29.90;84.20;;;;;;5055505;28;19911;-71
2023/01/02 02:43:03;;;;;;;;;;;29.80;83.70;;;;;;5055317;28;19919;-73
2023/01/02 02:45:36;;;;;;;;;;;30.00;84.70;;;;;;5044361;28;19951;-72
2023/01/02 02:48:12;;;;;;;;;;;30.10;83.80;;;;;;5035540;28;20003;-70
2023/01/02 02:50:42;;;;;;;;;;;30.20;82.20;;;;;;5035160;28;19992;-72
2023/01/02 02:53:13;;;;;;;;;;;30.30;84.50;;;;;;5051472;28;19974;-71
2023/01/02 02:55:43;;;;;;;;;;;30.40;84.80;;;;;;5055083;28;19919;-69
2023/01/02 02:58:11;;;;;;;;;;;30.60;84.80;;;;;;5058415;28;19908;-70
2023/01/02 03:00:37;;;;;;;;;;;30.60;83.80;;;;;;5058241;28;19931;-71
2023/01/02 03:03:17;;;;;;;;;;;30.80;84.10;;;;;;5061466;28;19909;-74
2023/01/02 03:05:51;;;;;;;;;;;31.00;83.70;;;;;;5063708;28;19979;-73
2023/01/02 03:08:22;;;;;;;;;;;31.00;82.60;;;;;;5061144;28;20407;-70
2023/01/02 03:10:51;;;;;;;;;;;31.10;83.10;;;;;;5044622;28;19912;-71
2023/01/02 03:13:22;;;;;;;;;;;31.10;83.80;;;;;;5047870;28;20430;-72
2023/01/02 03:15:59;;;;;;;;;;;31.30;83.40;;;;;;5048647;28;19928;-72
2023/01/02 03:18:32;;;;;;;;;;;31.70;83.60;;;;;;5048689;28;19916;-70
2023/01/02 03:21:11;;;;;;;;;;;32.20;80.10;;;;;;5042114;28;19912;-70
2023/01/02 03:23:47;;;;;;;;;;;32.40;78.90;;;;;;5054093;28;19913;-70
2023/01/02 03:26:26;;;;;;;;;;;32.60;78.90;;;;;;5055008;28;19919;-71
2023/01/02 03:28:55;;;;;;;;;;;33.10;78.00;;;;;;5055723;28;19964;-71
2023/01/02 03:31:24;;;;;;;;;;;33.20;76.10;;;;;;5056085;28;19927;-71
2023/01/02 03:33:58;;;;;;;;;;;33.10;78.60;;;;;;5055852;28;20013;-72
2023/01/02 03:36:26;;;;;;;;;;;33.10;77.60;;;;;;5051177;28;19920;-72
2023/01/02 03:39:01;;;;;;;;;;;33.40;78.80;;;;;;5046415;28;19916;-72
2023/01/02 03:41:31;;;;;;;;;;;33.50;79.40;;;;;;5036413;28;19915;-73
2023/01/02 03:43:59;;;;;;;;;;;34.00;76.80;;;;;;5037289;28;20272;-72
2023/01/02 03:46:29;;;;;;;;;;;33.70;77.20;;;;;;5034630;28;20378;-72
2023/01/02 03:48:56;;;;;;;;;;;33.90;76.60;;;;;;5037328;28;20000;-73
2023/01/02 03:51:22;;;;;;;;;;;34.10;78.20;;;;;;5033521;28;19909;-71
2023/01/02 03:53:50;;;;;;;;;;;34.70;74.80;;;;;;5035795;28;19909;-74
2023/01/02 03:56:37;;;;;;;;;;;35.00;74.20;;;;;;5034042;28;19920;-72
2023/01/02 03:59:03;;;;;;;;;;;35.10;71.40;;;;;;5035679;28;19909;-72
2023/01/02 04:01:33;;;;;;;;;;;34.60;72.90;;;;;;5033362;28;19909;-73
2023/01/02 04:04:09;;;;;;;;;;;34.50;73.20;;;;;;5044771;28;19943;-73
2023/01/02 04:06:37;;;;;;;;;;;33.40;75.90;;;;;;5055510;28;20666;-72
2023/01/02 04:09:04;;;;;;;;;;;33.40;75.40;;;;;;5058395;28;19909;-74
2023/01/02 04:11:32;;;;;;;;;;;33.70;76.70;;;;;;5056120;28;19916;-74
2023/01/02 04:14:02;;;;;;;;;;;33.40;76.10;;;;;;5059667;28;19908;-71
2023/01/02 04:16:30;;;;;;;;;;;33.50;77.90;;;;;;5056984;28;19956;-73
2023/01/02 04:19:02;;;;;;;;;;;35.20;75.30;;;;;;5051209;28;19917;-72
2023/01/02 04:21:30;;;;;;;;;;;35.60;75.00;;;;;;5036753;28;19913;-72
2023/01/02 04:24:05;;;;;;;;;;;35.50;73.10;;;;;;5046184;28;20536;-72
2023/01/02 04:26:39;;;;;;;;;;;35.40;74.50;;;;;;5056497;28;20366;-72
2023/01/02 04:29:06;;;;;;;;;;;35.50;72.90;;;;;;5058920;28;19916;-73
2023/01/02 04:31:36;;;;;;;;;;;35.50;74.20;;;;;;5056353;28;20054;-72
2023/01/02 04:34:03;;;;;;;;;;;35.00;72.90;;;;;;5059027;28;19951;-73
2023/01/02 04:36:30;;;;;;;;;;;35.80;73.20;;;;;;5056090;28;19938;-72
2023/01/02 04:38:56;;;;;;;;;;;35.90;72.60;;;;;;5048260;28;20123;-72
2023/01/02 04:41:27;;;;;;;;;;;35.90;72.20;;;;;;5037182;28;20365;-74
2023/01/02 04:43:54;;;;;;;;;;;36.50;72.50;;;;;;5038705;28;19909;-72
2023/01/02 04:46:21;;;;;;;;;;;35.70;71.30;;;;;;5036467;28;19909;-73
2023/01/02 04:48:48;;;;;;;;;;;35.30;71.10;;;;;;5035643;28;20666;-73
2023/01/02 04:51:14;;;;;;;;;;;34.80;71.50;;;;;;5038403;28;19909;-72
2023/01/02 04:53:41;;;;;;;;;;;34.30;71.30;;;;;;5042962;28;19999;-73
2023/01/02 04:56:08;;;;;;;;;;;34.80;69.20;;;;;;5058291;28;19920;-73
2023/01/02 04:58:34;;;;;;;;;;;35.40;70.00;;;;;;5055183;28;20352;-72
2023/01/02 05:01:01;;;;;;;;;;;34.90;70.00;;;;;;5058846;28;20000;-73
2023/01/02 05:03:28;;;;;;;;;;;35.50;68.00;;;;;;5056736;28;19920;-71
2023/01/02 05:06:01;;;;;;;;;;;36.10;66.90;;;;;;5056846;28;19915;-72
2023/01/02 05:08:30;;;;;;;;;;;36.50;66.90;;;;;;5040198;28;19913;-73
2023/01/02 05:10:57;;;;;;;;;;;35.80;67.90;;;;;;5052971;28;19909;-73
2023/01/02 05:13:23;;;;;;;;;;;36.00;68.00;;;;;;5054454;28;20545;-74
2023/01/02 05:15:54;;;;;;;;;;;36.10;67.20;;;;;;5041232;28;19966;-73
2023/01/02 05:18:21;;;;;;;;;;;34.90;68.60;;;;;;5049148;28;19947;-72
2023/01/02 05:20:48;;;;;;;;;;;34.90;69.90;;;;;;5034328;28;20388;-73
2023/01/02 05:25:59;;;;;;;;;;;34.60;68.60;;;;;;5052637;28;20305;-72
2023/01/02 05:28:26;;;;;;;;;;;34.20;70.70;;;;;;5052218;28;19913;-74
2023/01/02 05:30:52;;;;;;;;;;;34.50;71.00;;;;;;5054370;28;19967;-73
2023/01/02 05:33:19;;;;;;;;;;;34.10;71.50;;;;;;5055442;28;19955;-74
2023/01/02 05:35:46;;;;;;;;;;;33.40;71.60;;;;;;5053889;28;19927;-72
2023/01/02 05:38:13;;;;;;;;;;;33.30;71.90;;;;;;5047202;28;19952;-72
2023/01/02 05:40:39;;;;;;;;;;;32.60;73.70;;;;;;5049961;28;20397;-71
2023/01/02 05:43:06;;;;;;;;;;;31.90;74.70;;;;;;5055279;28;19913;-72
2023/01/02 05:45:33;;;;;;;;;;;31.20;77.20;;;;;;5051338;28;19909;-71
2023/01/02 05:47:59;;;;;;;;;;;30.90;78.20;;;;;;5034861;28;19909;-72
2023/01/02 05:50:26;;;;;;;;;;;30.60;79.30;;;;;;5037287;28;19909;-71
2023/01/02 05:52:54;;;;;;;;;;;30.30;80.60;;;;;;5044616;28;20374;-72
2023/01/02 05:55:21;;;;;;;;;;;30.30;81.10;;;;;;5049876;28;19913;-72
2023/01/02 05:57:48;;;;;;;;;;;30.70;80.80;;;;;;5036293;28;19996;-72
2023/01/02 06:00:15;;;;;;;;;;;31.00;80.60;;;;;;5035298;28;19920;-72
2023/01/02 06:02:41;;;;;;;;;;;31.00;80.90;;;;;;5035829;28;20234;-73
2023/01/02 06:05:08;;;;;;;;;;;30.90;81.80;;;;;;5051574;28;20367;-71
2023/01/02 06:07:35;;;;;;;;;;;30.40;82.90;;;;;;5037870;28;19996;-72
2023/01/02 06:10:02;;;;;;;;;;;29.90;84.60;;;;;;5046059;28;19923;-71
2023/01/02 06:12:29;;;;;;;;;;;29.70;85.60;;;;;;5036831;28;19912;-71
2023/01/02 06:14:55;;;;;;;;;;;29.50;86.20;;;;;;5048631;28;20580;-73
2023/01/02 06:17:22;;;;;;;;;;;29.10;87.70;;;;;;5052904;28;19917;-71
2023/01/02 06:19:48;;;;;;;;;;;29.00;87.00;;;;;;5049009;28;19917;-71
2023/01/02 06:22:15;;;;;;;;;;;28.60;87.60;;;;;;5033467;28;19959;-73
2023/01/02 06:24:42;;;;;;;;;;;28.30;88.70;;;;;;5034146;28;19952;-71
2023/01/02 06:27:08;;;;;;;;;;;28.20;89.30;;;;;;5051914;28;19990;-71
2023/01/02 06:29:35;;;;;;;;;;;28.30;89.20;;;;;;5044051;28;19966;-70
2023/01/02 06:32:02;;;;;;;;;;;28.40;89.40;;;;;;5034492;28;19912;-71
2023/01/02 06:34:28;;;;;;;;;;;28.20;90.20;;;;;;5047345;28;19963;-71
2023/01/02 06:36:55;;;;;;;;;;;27.60;90.70;;;;;;5053655;28;19916;-72
2023/01/02 06:39:21;;;;;;;;;;;27.50;91.40;;;;;;5052746;28;20285;-73
2023/01/02 06:41:48;;;;;;;;;;;27.50;91.50;;;;;;5038744;28;19978;-69
2023/01/02 06:44:15;;;;;;;;;;;27.60;91.30;;;;;;5054671;28;20324;-75
2023/01/02 06:46:41;;;;;;;;;;;27.80;91.50;;;;;;5055057;28;19920;-70
2023/01/02 06:49:08;;;;;;;;;;;27.80;91.40;;;;;;5049101;28;20381;-72
2023/01/02 06:51:35;;;;;;;;;;;27.70;91.70;;;;;;5041027;28;19917;-70
2023/01/02 06:54:01;;;;;;;;;;;27.50;91.80;;;;;;5033441;28;19974;-70
2023/01/02 06:56:28;;;;;;;;;;;27.30;91.70;;;;;;5034566;28;19921;-72
2023/01/02 06:58:55;;;;;;;;;;;27.10;92.10;;;;;;5040466;28;19913;-70
2023/01/02 07:01:22;;;;;;;;;;;26.90;92.60;;;;;;5041696;28;20286;-70
2023/01/02 07:03:49;;;;;;;;;;;26.90;91.90;;;;;;5033731;28;20339;-70
2023/01/02 07:06:16;;;;;;;;;;;26.80;92.40;;;;;;5035115;28;19912;-71
2023/01/02 07:08:43;;;;;;;;;;;26.80;92.80;;;;;;5037683;28;19913;-69
2023/01/02 07:11:11;;;;;;;;;;;26.80;93.00;;;;;;5043094;28;20702;-69
2023/01/02 07:13:38;;;;;;;;;;;26.50;93.70;;;;;;5039504;28;20010;-68
2023/01/02 07:16:06;;;;;;;;;;;26.40;94.10;;;;;;5047713;28;20774;-68
2023/01/02 07:18:33;;;;;;;;;;;26.40;93.90;;;;;;5053662;28;19908;-68
2023/01/02 07:21:00;;;;;;;;;;;26.10;94.50;;;;;;5033519;28;19909;-72
2023/01/02 07:23:27;;;;;;;;;;;26.00;95.00;;;;;;5050367;28;20377;-68
2023/01/02 07:25:54;;;;;;;;;;;26.00;94.90;;;;;;5051749;28;19916;-69
2023/01/02 07:28:21;;;;;;;;;;;25.80;95.40;;;;;;5038678;28;19947;-70
2023/01/02 07:30:48;;;;;;;;;;;25.70;95.90;;;;;;5033148;28;19952;-70
2023/01/02 07:33:14;;;;;;;;;;;25.60;95.80;;;;;;5051780;28;19915;-70
2023/01/02 07:35:42;;;;;;;;;;;25.70;96.30;;;;;;5042125;28;20573;-69
2023/01/02 07:38:09;;;;;;;;;;;25.60;96.60;;;;;;5043144;28;20037;-69
2023/01/02 07:40:36;;;;;;;;;;;25.60;96.80;;;;;;5057008;28;19908;-69
2023/01/02 07:43:03;;;;;;;;;;;25.60;96.80;;;;;;5056227;28;19999;-69
2023/01/02 07:45:29;;;;;;;;;;;25.30;97.00;;;;;;5039967;28;19970;-68
2023/01/02 07:47:57;;;;;;;;;;;25.30;97.30;;;;;;5057876;28;19909;-70
2023/01/02 07:50:23;;;;;;;;;;;25.20;97.90;;;;;;5058861;28;19908;-69
2023/01/02 07:52:50;;;;;;;;;;;25.20;97.70;;;;;;5043605;28;19909;-72
2023/01/02 07:55:17;;;;;;;;;;;25.30;98.10;;;;;;5043165;28;19943;-70
2023/01/02 07:57:46;;;;;;;;;;;25.20;98.30;;;;;;5051781;28;19920;-69
2023/01/02 08:00:13;;;;;;;;;;;25.20;98.30;;;;;;5053963;28;19912;-68
2023/01/02 08:02:40;;;;;;;;;;;25.10;98.50;;;;;;5043899;28;19916;-68
2023/01/02 08:05:07;;;;;;;;;;;25.00;98.70;;;;;;5037371;28;19917;-68
2023/01/02 08:07:33;;;;;;;;;;;24.90;99.00;;;;;;5038903;28;19954;-68
2023/01/02 08:10:00;;;;;;;;;;;24.90;98.80;;;;;;5041360;28;19908;-69
2023/01/02 08:12:27;;;;;;;;;;;24.80;99.30;;;;;;5047855;28;19947;-70
2023/01/02 08:14:54;;;;;;;;;;;24.70;99.60;;;;;;5045377;28;19981;-69
2023/01/02 08:17:20;;;;;;;;;;;24.60;99.90;;;;;;5055596;28;20479;-70
2023/01/02 08:19:47;;;;;;;;;;;24.60;99.90;;;;;;5041470;28;20007;-71
2023/01/02 08:22:13;;;;;;;;;;;24.50;99.90;;;;;;5047097;28;19916;-69
2023/01/02 08:24:40;;;;;;;;;;;24.50;99.90;;;;;;5042219;28;20349;-69
2023/01/02 08:27:07;;;;;;;;;;;24.40;99.90;;;;;;5056205;28;19908;-69
2023/01/02 08:29:33;;;;;;;;;;;24.50;99.90;;;;;;5058939;28;19909;-69
2023/01/02 08:32:00;;;;;;;;;;;24.50;99.90;;;;;;5049504;28;19909;-69
2023/01/02 08:34:27;;;;;;;;;;;24.50;99.90;;;;;;5047529;28;19932;-70
2023/01/02 08:36:53;;;;;;;;;;;24.50;99.90;;;;;;5048399;28;20289;-68
2023/01/02 08:39:20;;;;;;;;;;;24.40;99.90;;;;;;5056707;28;19920;-69
2023/01/02 08:41:46;;;;;;;;;;;24.40;99.90;;;;;;5051236;28;19948;-69
2023/01/02 08:44:14;;;;;;;;;;;24.30;99.90;;;;;;5035986;28;20255;-68
2023/01/02 08:46:41;;;;;;;;;;;24.20;99.90;;;;;;5038914;28;19909;-69
2023/01/02 08:49:08;;;;;;;;;;;24.20;99.90;;;;;;5035047;28;19955;-68
2023/01/02 08:51:34;;;;;;;;;;;24.20;99.90;;;;;;5049369;28;19943;-69
2023/01/02 08:54:01;;;;;;;;;;;24.20;99.90;;;;;;5047430;28;19912;-70
2023/01/02 08:56:29;;;;;;;;;;;24.00;99.90;;;;;;5039073;28;19928;-68
2023/01/02 08:59:00;;;;;;;;;;;23.90;99.90;;;;;;5037990;28;19919;-69
2023/01/02 09:01:28;;;;;;;;;;;23.90;99.90;;;;;;5052023;28;19913;-68
2023/01/02 09:03:55;;;;;;;;;;;23.90;99.90;;;;;;5049693;28;20326;-70
2023/01/02 09:06:23;;;;;;;;;;;23.90;99.90;;;;;;5036034;28;19909;-71
2023/01/02 09:08:51;;;;;;;;;;;23.80;99.90;;;;;;5038239;28;19928;-70
2023/01/02 09:11:19;;;;;;;;;;;23.80;99.90;;;;;;5036056;28;19913;-71
2023/01/02 09:13:46;;;;;;;;;;;23.80;99.90;;;;;;5052184;28;19913;-69
2023/01/02 09:16:13;;;;;;;;;;;23.70;99.90;;;;;;5048957;28;20647;-69
2023/01/02 09:18:40;;;;;;;;;;;23.80;99.90;;;;;;5047197;28;19913;-70
2023/01/02 09:21:06;;;;;;;;;;;23.70;99.90;;;;;;5054105;28;19916;-72
2023/01/02 09:23:33;;;;;;;;;;;23.60;99.90;;;;;;5037405;28;19912;-75
2023/01/02 09:26:02;;;;;;;;;;;23.60;99.90;;;;;;5038953;28;19913;-73
2023/01/02 09:28:29;;;;;;;;;;;23.60;99.90;;;;;;5051708;28;20310;-73
2023/01/02 09:30:56;;;;;;;;;;;23.60;99.90;;;;;;5059970;28;19908;-70
2023/01/02 09:33:23;;;;;;;;;;;23.60;99.90;;;;;;5047241;28;20321;-70
2023/01/02 09:35:49;;;;;;;;;;;23.50;99.90;;;;;;5058626;28;19973;-68
2023/01/02 09:38:16;;;;;;;;;;;23.50;99.90;;;;;;5060823;28;20357;-69
2023/01/02 09:40:48;;;;;;;;;;;23.60;99.90;;;;;;5045540;28;19999;-70
2023/01/02 09:43:16;;;;;;;;;;;23.60;99.90;;;;;;5050492;28;20373;-70
2023/01/02 09:45:44;;;;;;;;;;;23.50;99.90;;;;;;5041933;28;20735;-69
2023/01/02 09:48:15;;;;;;;;;;;23.50;99.90;;;;;;5048983;28;19913;-68
2023/01/02 09:50:42;;;;;;;;;;;23.50;99.90;;;;;;5043556;28;20807;-69
2023/01/02 09:53:09;;;;;;;;;;;23.50;99.90;;;;;;5059891;28;19989;-69
2023/01/02 09:55:42;;;;;;;;;;;23.60;99.90;;;;;;5036146;28;19917;-70
2023/01/02 09:58:13;;;;;;;;;;;23.60;99.90;;;;;;5045285;28;20003;-69
2023/01/02 10:00:40;;;;;;;;;;;23.60;99.90;;;;;;5043287;28;19960;-69
2023/01/02 10:03:10;;;;;;;;;;;23.60;99.90;;;;;;5039649;28;19978;-75
2023/01/02 10:06:12;;;;;;;;;;;23.50;99.90;;;;;;5053055;28;19959;-70
2023/01/02 10:08:39;;;;;;;;;;;23.50;99.90;;;;;;5057176;28;19950;-71
2023/01/02 10:11:14;;;;;;;;;;;23.50;99.90;;;;;;5041055;28;19916;-71
2023/01/02 10:13:45;;;;;;;;;;;23.50;99.90;;;;;;5054402;28;19973;-68
2023/01/02 10:16:16;;;;;;;;;;;23.50;99.90;;;;;;5038040;28;19923;-69
2023/01/02 10:18:44;;;;;;;;;;;23.50;99.90;;;;;;5056447;28;19966;-70
2023/01/02 10:21:13;;;;;;;;;;;23.40;99.90;;;;;;5056508;28;19952;-70
2023/01/02 10:24:03;;;;;;;;;;;23.40;99.90;;;;;;5059149;28;19908;-71
2023/01/02 10:26:36;;;;;;;;;;;23.50;99.90;;;;;;5058345;28;19985;-70
2023/01/02 10:29:21;;;;;;;;;;;23.40;99.90;;;;;;5054620;28;19916;-71
2023/01/02 10:31:52;;;;;;;;;;;23.40;99.90;;;;;;5057305;28;19967;-72
2023/01/02 10:34:22;;;;;;;;;;;23.40;99.90;;;;;;5058783;28;19924;-72
2023/01/02 10:36:49;;;;;;;;;;;23.40;99.90;;;;;;5057509;28;20334;-73
2023/01/02 10:39:23;;;;;;;;;;;23.30;99.90;;;;;;5038540;28;19913;-71
2023/01/02 10:41:55;;;;;;;;;;;23.30;99.90;;;;;;5057440;28;19948;-69
2023/01/02 10:44:25;;;;;;;;;;;23.30;99.90;;;;;;5058998;28;19908;-69
2023/01/02 10:46:52;;;;;;;;;;;23.30;99.90;;;;;;5057146;28;19909;-70
2023/01/02 10:49:20;;;;;;;;;;;23.20;99.90;;;;;;5058889;28;19919;-69
2023/01/02 10:52:06;;;;;;;;;;;23.20;99.90;;;;;;5042228;28;20404;-70
2023/01/02 10:54:53;;;;;;;;;;;23.20;99.90;;;;;;5036641;28;19909;-69
2023/01/02 10:57:32;;;;;;;;;;;23.20;99.90;;;;;;5036793;28;20536;-70
2023/01/02 10:59:59;;;;;;;;;;;23.20;99.90;;;;;;5053639;28;20358;-72
2023/01/02 11:02:29;;;;;;;;;;;23.30;99.90;;;;;;5053863;28;20275;-71
2023/01/02 11:05:00;;;;;;;;;;;23.20;99.90;;;;;;5046291;28;19913;-70
2023/01/02 11:07:27;;;;;;;;;;;23.20;99.90;;;;;;5033655;28;19938;-68
2023/01/02 11:09:55;;;;;;;;;;;23.20;99.90;;;;;;5035900;28;19945;-68
2023/01/02 11:12:22;;;;;;;;;;;23.20;99.90;;;;;;5038337;28;19919;-69
2023/01/02 11:14:49;;;;;;;;;;;23.10;99.90;;;;;;5055428;28;19929;-69
2023/01/02 11:17:18;;;;;;;;;;;23.10;99.90;;;;;;5032658;28;19960;-69
2023/01/02 11:19:50;;;;;;;;;;;23.10;99.90;;;;;;5036076;28;19909;-69
2023/01/02 11:22:36;;;;;;;;;;;23.10;99.90;;;;;;5032879;28;19909;-68
2023/01/02 11:25:17;;;;;;;;;;;23.20;99.90;;;;;;5035424;28;19963;-69
2023/01/02 11:27:44;;;;;;;;;;;23.20;99.90;;;;;;5036028;28;19916;-68
2023/01/02 11:30:26;;;;;;;;;;;23.20;99.90;;;;;;5034614;28;19915;-68
2023/01/02 11:33:05;;;;;;;;;;;23.30;99.90;;;;;;5036994;28;19917;-69
2023/01/02 11:35:44;;;;;;;;;;;23.20;99.90;;;;;;5033810;28;19920;-70
2023/01/02 11:38:15;;;;;;;;;;;23.30;99.90;;;;;;5034879;28;19909;-71
2023/01/02 11:41:08;;;;;;;;;;;23.20;99.90;;;;;;5035718;28;19919;-70
2023/01/02 11:43:47;;;;;;;;;;;23.20;99.90;;;;;;5032401;28;20319;-69
2023/01/02 11:46:33;;;;;;;;;;;23.30;99.90;;;;;;5034811;28;20004;-70
2023/01/02 11:49:10;;;;;;;;;;;23.30;99.90;;;;;;5052972;28;19912;-67
2023/01/02 11:51:38;;;;;;;;;;;23.20;99.90;;;;;;5053490;28;19908;-71
2023/01/02 11:54:09;;;;;;;;;;;23.20;99.90;;;;;;5035154;28;19916;-71
2023/01/02 11:56:38;;;;;;;;;;;23.30;99.90;;;;;;5033113;28;20262;-70
2023/01/02 11:59:20;;;;;;;;;;;23.30;99.90;;;;;;5034924;28;20000;-70
2023/01/02 12:01:50;;;;;;;;;;;23.30;99.90;;;;;;5050659;28;19916;-72
2023/01/02 12:04:16;;;;;;;;;;;23.30;99.90;;;;;;5054048;28;19913;-72
2023/01/02 12:07:01;;;;;;;;;;;23.20;99.90;;;;;;5054537;28;19908;-68
2023/01/02 12:09:41;;;;;;;;;;;23.10;99.90;;;;;;5033770;28;19916;-67
2023/01/02 12:12:17;;;;;;;;;;;23.20;99.90;;;;;;5035332;28;19924;-67
2023/01/02 12:15:01;;;;;;;;;;;23.20;99.90;;;;;;5035034;28;19909;-68
2023/01/02 12:17:31;;;;;;;;;;;23.20;99.90;;;;;;5033199;28;19960;-67
2023/01/02 12:20:01;;;;;;;;;;;23.20;99.90;;;;;;5035942;28;19920;-68
2023/01/02 12:22:49;;;;;;;;;;;23.20;99.90;;;;;;5034612;28;19956;-68
2023/01/02 12:25:34;;;;;;;;;;;23.20;99.90;;;;;;5036042;28;20072;-67
2023/01/02 12:28:16;;;;;;;;;;;23.10;99.90;;;;;;5045837;28;19909;-69
2023/01/02 12:30:52;;;;;;;;;;;23.10;99.90;;;;;;5057451;28;20331;-67
2023/01/02 12:33:39;;;;;;;;;;;23.10;99.90;;;;;;5057823;28;19915;-70
2023/01/02 12:36:12;;;;;;;;;;;23.10;99.90;;;;;;5057029;28;20464;-68
2023/01/02 12:38:38;;;;;;;;;;;23.00;99.90;;;;;;5058992;28;19909;-70
2023/01/02 12:41:09;;;;;;;;;;;23.00;99.90;;;;;;5057925;28;19908;-72
2023/01/02 12:43:54;;;;;;;;;;;23.00;99.90;;;;;;5046848;28;19913;-71
2023/01/02 12:46:20;;;;;;;;;;;23.00;99.90;;;;;;5060160;28;19962;-69
2023/01/02 12:49:02;;;;;;;;;;;23.00;99.90;;;;;;5062032;28;19912;-70
2023/01/02 12:51:34;;;;;;;;;;;23.00;99.90;;;;;;5061542;28;19912;-72
2023/01/02 12:54:21;;;;;;;;;;;23.00;99.90;;;;;;5074196;28;20349;-69
2023/01/02 12:56:53;;;;;;;;;;;22.90;99.90;;;;;;5061134;28;19916;-73
2023/01/02 12:59:38;;;;;;;;;;;22.90;99.90;;;;;;5054476;28;19916;-72
2023/01/02 13:02:10;;;;;;;;;;;22.90;99.90;;;;;;5054380;28;19909;-69
2023/01/02 13:04:42;;;;;;;;;;;22.90;99.90;;;;;;5054551;28;20374;-72
2023/01/02 13:07:09;;;;;;;;;;;22.90;99.90;;;;;;5057533;28;20373;-69
2023/01/02 13:09:39;;;;;;;;;;;22.90;99.90;;;;;;5074429;28;19959;-72
2023/01/02 13:12:09;;;;;;;;;;;22.90;99.90;;;;;;5074807;28;19939;-69
2023/01/02 13:14:45;;;;;;;;;;;22.90;99.90;;;;;;5074241;28;20013;-69
2023/01/02 13:17:12;;;;;;;;;;;22.90;99.90;;;;;;5074708;28;20330;-69
2023/01/02 13:19:43;;;;;;;;;;;22.80;99.90;;;;;;5077198;28;19915;-69
2023/01/02 13:22:47;;;;;;;;;;;22.80;99.90;;;;;;5073622;28;20301;-69
2023/01/02 13:25:16;;;;;;;;;;;22.80;99.90;;;;;;5053324;28;19909;-70
2023/01/02 13:27:44;;;;;;;;;;;22.80;99.90;;;;;;5062147;28;19944;-69
2023/01/02 13:30:29;;;;;;;;;;;22.80;99.90;;;;;;5062808;28;19913;-69
2023/01/02 13:32:57;;;;;;;;;;;22.80;99.90;;;;;;5054512;28;20386;-69
2023/01/02 13:35:23;;;;;;;;;;;22.80;99.90;;;;;;5053518;28;20353;-73
2023/01/02 13:37:51;;;;;;;;;;;22.80;99.90;;;;;;5053204;28;19968;-69
2023/01/02 13:40:25;;;;;;;;;;;22.80;99.90;;;;;;5053951;28;19963;-73
2023/01/02 13:42:58;;;;;;;;;;;22.80;99.90;;;;;;5054700;28;19978;-69
2023/01/02 13:45:31;;;;;;;;;;;22.80;99.90;;;;;;5053771;28;19912;-70
2023/01/02 13:48:06;;;;;;;;;;;22.80;99.90;;;;;;5053962;28;19909;-69
2023/01/02 13:50:37;;;;;;;;;;;22.80;99.90;;;;;;5059340;28;19977;-70
2023/01/02 13:53:12;;;;;;;;;;;22.70;99.90;;;;;;5073995;28;19934;-69
2023/01/02 13:55:39;;;;;;;;;;;22.70;99.90;;;;;;5072939;28;19954;-69
2023/01/02 13:58:12;;;;;;;;;;;22.70;99.90;;;;;;5073423;28;19948;-73
2023/01/02 14:00:39;;;;;;;;;;;22.70;99.90;;;;;;5073384;28;19970;-69
2023/01/02 14:03:22;;;;;;;;;;;22.70;99.90;;;;;;5062314;28;19909;-71
2023/01/02 14:05:57;;;;;;;;;;;22.60;99.90;;;;;;5053117;28;19959;-69
2023/01/02 14:08:38;;;;;;;;;;;22.60;99.90;;;;;;5053387;28;19974;-69
2023/01/02 14:11:06;;;;;;;;;;;22.60;99.90;;;;;;5053135;28;19909;-69
2023/01/02 14:13:36;;;;;;;;;;;22.60;99.90;;;;;;5053516;28;19920;-68
2023/01/02 14:16:12;;;;;;;;;;;22.60;99.90;;;;;;5051911;28;19966;-70
2023/01/02 14:18:39;;;;;;;;;;;22.60;99.90;;;;;;5059842;28;19919;-71
2023/01/02 14:21:06;;;;;;;;;;;22.60;99.90;;;;;;5072396;28;19913;-71
2023/01/02 14:23:40;;;;;;;;;;;22.60;99.90;;;;;;5060637;28;19908;-69
2023/01/02 14:26:20;;;;;;;;;;;22.60;99.90;;;;;;5052800;28;19913;-68
2023/01/02 14:28:49;;;;;;;;;;;22.60;99.90;;;;;;5053141;28;19919;-69
2023/01/02 14:31:17;;;;;;;;;;;22.50;99.90;;;;;;5052777;28;19944;-70
2023/01/02 14:33:51;;;;;;;;;;;22.50;99.90;;;;;;5052530;28;19909;-69
2023/01/02 14:36:18;;;;;;;;;;;22.50;99.90;;;;;;5051799;28;19928;-69